Time;durP1;ratioP1;P1;durP2;ratioP2;P2;SDS_P1;SDS_P2;PMS_P1;PMS_P2;Temp;Humidity;BMP_temperature;BMP_pressure;BME280_temperature;BME280_humidity;BME280_pressure;Samples;Min_cycle;Max_cycle;Signal;HPM_P1;HPM_P2
2022/01/12 00:00:32;;;;;;;8.02;1.20;;;25.50;99.90;;;;;;5032240;28;20030;-65
2022/01/12 00:02:59;;;;;;;7.93;1.33;;;25.60;99.90;;;;;;5027507;28;20029;-65
2022/01/12 00:05:27;;;;;;;7.15;1.38;;;25.60;99.90;;;;;;5026198;28;20447;-66
2022/01/12 00:07:54;;;;;;;9.25;1.73;;;25.70;99.90;;;;;;5032336;28;20029;-65
2022/01/12 00:10:21;;;;;;;11.55;1.50;;;25.90;99.90;;;;;;5022063;28;20030;-65
2022/01/12 00:12:49;;;;;;;13.35;1.63;;;26.20;99.90;;;;;;5029870;28;20052;-65
2022/01/12 00:15:16;;;;;;;9.20;1.40;;;26.50;99.90;;;;;;5027783;28;20100;-65
2022/01/12 00:17:45;;;;;;;7.50;2.13;;;26.70;99.90;;;;;;5028060;28;20021;-65
2022/01/12 00:20:12;;;;;;;8.30;2.20;;;26.80;99.90;;;;;;5030215;28;20116;-65
2022/01/12 00:22:41;;;;;;;4.43;1.52;;;26.80;99.90;;;;;;5016272;28;20087;-65
2022/01/12 00:25:30;;;;;;;8.75;1.75;;;26.70;99.90;;;;;;5022726;28;20032;-64
2022/01/12 00:33:29;;;;;;;8.02;1.42;;;26.40;99.90;;;;;;5017568;28;20109;-65
2022/01/12 00:35:58;;;;;;;6.60;1.20;;;26.80;99.90;;;;;;5031116;28;20030;-64
2022/01/12 00:38:29;;;;;;;7.15;1.27;;;26.70;99.90;;;;;;5033620;28;20025;-64
2022/01/12 00:40:57;;;;;;;4.88;1.15;;;26.40;99.90;;;;;;5031993;28;20390;-64
2022/01/12 00:43:27;;;;;;;9.15;1.45;;;26.70;99.90;;;;;;5019752;28;20152;-64
2022/01/12 00:45:55;;;;;;;7.97;1.42;;;27.20;99.90;;;;;;5030403;28;20104;-66
2022/01/12 00:48:23;;;;;;;3.33;0.65;;;27.50;99.90;;;;;;5025214;28;20038;-64
2022/01/12 00:50:51;;;;;;;3.67;0.88;;;27.30;99.90;;;;;;5016394;28;20057;-64
2022/01/12 00:53:18;;;;;;;4.95;0.80;;;26.80;99.90;;;;;;5013546;28;20022;-65
2022/01/12 00:55:45;;;;;;;6.43;1.13;;;27.10;99.90;;;;;;5026074;28;20064;-65
2022/01/12 00:58:13;;;;;;;14.27;1.20;;;27.10;99.90;;;;;;5019381;28;20044;-65
2022/01/12 01:00:41;;;;;;;4.13;0.55;;;26.70;99.90;;;;;;5018388;28;20058;-65
2022/01/12 01:03:09;;;;;;;3.90;0.93;;;26.60;99.90;;;;;;5015743;28;20045;-65
2022/01/12 01:05:37;;;;;;;2.03;0.60;;;27.10;99.90;;;;;;5029507;28;20025;-65
2022/01/12 01:08:05;;;;;;;3.25;0.50;;;27.20;99.90;;;;;;5031517;28;20397;-65
2022/01/12 01:13:04;;;;;;;4.55;0.80;;;27.10;99.90;;;;;;5030681;28;20037;-65
2022/01/12 01:26:32;;;;;;;9.00;1.58;;;27.40;99.90;;;;;;5026452;28;20064;-65
2022/01/12 01:29:00;;;;;;;6.38;0.60;;;27.00;99.90;;;;;;5031117;28;20026;-64
2022/01/12 01:31:34;;;;;;;3.55;0.63;;;27.20;99.90;;;;;;5025271;28;20478;-65
2022/01/12 01:34:12;;;;;;;6.20;1.05;;;27.40;99.90;;;;;;5025514;28;20037;-65
2022/01/12 01:36:48;;;;;;;4.32;0.60;;;27.20;99.90;;;;;;5024388;28;20026;-65
2022/01/12 01:39:19;;;;;;;7.53;0.95;;;27.40;99.90;;;;;;5029247;28;20067;-65
2022/01/12 01:41:58;;;;;;;3.20;0.52;;;27.60;99.90;;;;;;5022039;28;20010;-64
2022/01/12 01:55:19;;;;;;;4.47;1.23;;;28.50;99.90;;;;;;5031585;28;20028;-66
2022/01/12 01:57:47;;;;;;;5.13;1.17;;;28.30;99.90;;;;;;5031343;28;20486;-65
2022/01/12 02:00:17;;;;;;;3.45;1.05;;;28.60;99.90;;;;;;5027721;28;20025;-65
2022/01/12 02:02:46;;;;;;;8.82;1.33;;;28.50;99.90;;;;;;5025013;28;20067;-65
2022/01/12 02:05:13;;;;;;;8.35;1.15;;;28.60;99.90;;;;;;5021742;28;20100;-65
2022/01/12 02:07:41;;;;;;;4.63;0.90;;;28.30;99.90;;;;;;5026329;28;20501;-64
2022/01/12 02:10:09;;;;;;;6.22;1.05;;;27.40;99.90;;;;;;5023483;28;20437;-65
2022/01/12 02:12:36;;;;;;;3.90;1.00;;;27.20;99.90;;;;;;5027372;28;20735;-64
2022/01/12 02:15:12;;;;;;;4.10;1.20;;;27.20;99.90;;;;;;5029485;28;20508;-64
2022/01/12 02:17:52;;;;;;;6.43;0.73;;;27.00;99.90;;;;;;5024441;28;20101;-64
2022/01/12 02:39:45;;;;;;;3.65;0.50;;;26.50;99.90;;;;;;5025378;28;20045;-65
2022/01/12 02:40:01;;;;;;;6.22;1.17;;;26.50;99.90;;;;;;5025971;28;20026;-64
2022/01/12 02:42:29;;;;;;;6.75;0.93;;;26.90;99.90;;;;;;5020711;28;20071;-65
2022/01/12 02:50:44;;;;;;;7.15;1.08;;;27.20;99.90;;;;;;5021726;28;20055;-65
2022/01/12 02:55:57;;;;;;;6.22;1.02;;;27.20;99.90;;;;;;5033189;28;20000;-64
2022/01/12 02:58:24;;;;;;;6.32;1.25;;;26.90;99.90;;;;;;5029685;28;20428;-64
2022/01/12 03:03:56;;;;;;;3.47;0.73;;;26.70;99.90;;;;;;5028106;28;20041;-65
2022/01/12 03:06:30;;;;;;;5.38;0.90;;;26.60;99.90;;;;;;5018140;28;20034;-64
2022/01/12 03:08:59;;;;;;;5.57;0.60;;;26.30;99.90;;;;;;5031139;28;20096;-64
2022/01/12 03:11:28;;;;;;;5.93;0.85;;;26.10;99.90;;;;;;5023540;28;20487;-64
2022/01/12 03:13:55;;;;;;;5.68;0.88;;;26.10;99.90;;;;;;5018032;28;20017;-64
2022/01/12 03:16:25;;;;;;;2.33;0.65;;;26.00;99.90;;;;;;5031871;28;20033;-64
2022/01/12 03:18:59;;;;;;;7.00;1.25;;;25.90;99.90;;;;;;5032927;28;20041;-65
2022/01/12 03:21:28;;;;;;;;;;;25.90;99.90;;;;;;5019422;28;20018;-65
2022/01/12 03:23:55;;;;;;;3.40;0.75;;;25.90;99.90;;;;;;5017478;28;19905;-64
2022/01/12 03:26:25;;;;;;;3.72;0.70;;;26.10;99.90;;;;;;5017631;28;20025;-64
2022/01/12 03:28:55;;;;;;;5.63;0.75;;;26.10;99.90;;;;;;5018264;28;20069;-64
2022/01/12 03:31:26;;;;;;;5.88;0.60;;;26.10;99.90;;;;;;5020321;28;20088;-64
2022/01/12 03:34:05;;;;;;;5.82;1.25;;;26.00;99.90;;;;;;5026052;28;20022;-64
2022/01/12 03:39:14;;;;;;;3.95;0.50;;;25.80;99.90;;;;;;5023962;28;20709;-64
2022/01/12 03:41:43;;;;;;;5.93;1.42;;;25.80;99.90;;;;;;5027842;28;20045;-64
2022/01/12 03:44:12;;;;;;;2.38;0.73;;;25.80;99.90;;;;;;5014762;28;20021;-64
2022/01/12 03:46:46;;;;;;;3.10;0.80;;;25.70;99.90;;;;;;5028372;28;20109;-64
2022/01/12 03:49:16;;;;;;;6.68;0.98;;;25.50;99.90;;;;;;5023937;28;20560;-64
2022/01/12 03:51:44;;;;;;;5.05;1.27;;;25.50;99.90;;;;;;5018586;28;20378;-64
2022/01/12 03:54:12;;;;;;;6.35;1.13;;;25.50;99.90;;;;;;5023251;28;20030;-64
2022/01/12 03:56:39;;;;;;;4.32;1.10;;;25.30;99.90;;;;;;5021263;28;20077;-64
2022/01/12 03:59:07;;;;;;;3.08;0.80;;;25.20;99.90;;;;;;5022357;28;20026;-64
2022/01/12 04:01:35;;;;;;;5.18;1.23;;;25.20;99.90;;;;;;5022752;28;20776;-64
2022/01/12 04:04:06;;;;;;;4.22;1.00;;;25.10;99.90;;;;;;5028865;28;20541;-64
2022/01/12 04:09:21;;;;;;;5.00;1.00;;;25.10;99.90;;;;;;5023505;28;20113;-64
2022/01/12 04:11:48;;;;;;;5.97;1.30;;;25.20;99.90;;;;;;5015096;28;20034;-65
2022/01/12 04:14:16;;;;;;;6.68;0.80;;;25.10;99.90;;;;;;5024518;28;20030;-64
2022/01/12 04:16:44;;;;;;;4.78;1.45;;;25.10;99.90;;;;;;5028862;28;20030;-64
2022/01/12 04:19:12;;;;;;;4.78;1.20;;;25.10;99.90;;;;;;5015227;28;20032;-64
2022/01/12 04:21:47;;;;;;;6.53;1.13;;;25.10;99.90;;;;;;5014700;28;20037;-64
2022/01/12 04:24:15;;;;;;;8.88;0.85;;;25.00;99.90;;;;;;5017020;28;20025;-65
2022/01/12 04:26:42;;;;;;;6.00;1.08;;;25.10;99.90;;;;;;5026759;28;20045;-65
2022/01/12 04:29:10;;;;;;;4.28;0.80;;;25.00;99.90;;;;;;5021730;28;20601;-65
2022/01/12 04:31:38;;;;;;;5.07;0.80;;;25.00;99.90;;;;;;5031542;28;20041;-64
2022/01/12 04:34:08;;;;;;;5.55;2.50;;;24.90;99.90;;;;;;5028221;28;20026;-64
2022/01/12 04:36:36;;;;;;;5.55;1.48;;;24.80;99.90;;;;;;5025912;28;20037;-65
2022/01/12 04:39:04;;;;;;;6.82;2.22;;;24.90;99.90;;;;;;5015357;28;20034;-65
2022/01/12 04:41:32;;;;;;;5.07;1.33;;;24.70;99.90;;;;;;5028559;28;20540;-65
2022/01/12 04:44:02;;;;;;;10.48;3.75;;;24.60;99.90;;;;;;5030054;28;20021;-65
2022/01/12 04:46:50;;;;;;;6.93;1.10;;;24.50;99.90;;;;;;5024654;28;20698;-65
2022/01/12 04:49:47;;;;;;;3.55;0.80;;;24.60;99.90;;;;;;5024112;28;20039;-65
2022/01/12 04:52:10;;;;;;;7.55;1.30;;;24.50;99.90;;;;;;5018737;28;20478;-64
2022/01/12 04:54:37;;;;;;;6.78;1.58;;;24.40;99.90;;;;;;5023741;28;20026;-65
2022/01/12 04:57:05;;;;;;;4.55;1.40;;;24.20;99.90;;;;;;5022492;28;20022;-65
2022/01/12 04:59:35;;;;;;;9.05;3.22;;;24.10;99.90;;;;;;5020985;28;20026;-64
2022/01/12 05:06:20;;;;;;;7.75;2.13;;;24.00;99.90;;;;;;5022040;28;20037;-64
2022/01/12 05:07:45;;;;;;;4.70;0.95;;;23.80;99.90;;;;;;5019460;28;20115;-64
2022/01/12 05:12:57;;;;;;;5.22;0.68;;;23.50;99.90;;;;;;5019775;28;20057;-64
2022/01/12 05:15:32;;;;;;;3.50;0.70;;;23.60;99.90;;;;;;5022232;28;20029;-64
2022/01/12 05:18:00;;;;;;;6.68;0.68;;;23.60;99.90;;;;;;5022515;28;20029;-65
2022/01/12 05:20:27;;;;;;;6.55;0.98;;;23.70;99.90;;;;;;5023909;28;20025;-64
2022/01/12 05:22:55;;;;;;;5.28;1.20;;;23.60;99.90;;;;;;5016167;28;20026;-64
2022/01/12 05:25:22;;;;;;;3.17;1.10;;;23.50;99.90;;;;;;5026482;28;20558;-64
2022/01/12 05:27:50;;;;;;;4.05;1.30;;;23.50;99.90;;;;;;5022035;28;20462;-64
2022/01/12 05:30:17;;;;;;;4.57;1.05;;;23.50;99.90;;;;;;5024827;28;20040;-64
2022/01/12 05:32:46;;;;;;;7.68;1.20;;;23.40;99.90;;;;;;5015071;28;20018;-64
2022/01/12 05:35:16;;;;;;;4.60;1.55;;;23.40;99.90;;;;;;5020530;28;20383;-64
2022/01/12 05:37:47;;;;;;;4.55;0.98;;;23.40;99.90;;;;;;5027526;28;20075;-64
2022/01/12 05:40:16;;;;;;;4.35;1.13;;;23.50;99.90;;;;;;5024715;28;20028;-65
2022/01/12 05:42:44;;;;;;;4.38;0.88;;;23.40;99.90;;;;;;5017474;28;20149;-64
2022/01/12 05:45:12;;;;;;;3.47;0.70;;;23.40;99.90;;;;;;5026328;28;20569;-64
2022/01/12 05:50:13;;;;;;;3.38;1.15;;;23.00;99.90;;;;;;5023523;28;20041;-65
2022/01/12 05:52:41;;;;;;;6.95;0.88;;;22.70;99.90;;;;;;5028623;28;20040;-64
2022/01/12 05:55:10;;;;;;;6.22;0.77;;;22.50;99.90;;;;;;5024935;28;20030;-64
2022/01/12 05:57:38;;;;;;;10.00;1.58;;;22.40;99.90;;;;;;5013798;28;20030;-64
2022/01/12 06:00:08;;;;;;;4.00;0.70;;;22.50;99.90;;;;;;5025636;28;20109;-65
2022/01/12 06:02:35;;;;;;;2.35;0.73;;;22.40;99.90;;;;;;5020409;28;20044;-64
2022/01/12 06:05:04;;;;;;;7.28;1.25;;;22.30;99.90;;;;;;5026037;28;21490;-64
2022/01/12 06:07:31;;;;;;;3.85;0.70;;;22.30;99.90;;;;;;5019747;28;20034;-64
2022/01/12 06:10:00;;;;;;;4.07;0.90;;;22.30;99.90;;;;;;5013561;28;20037;-64
2022/01/12 06:12:27;;;;;;;7.38;1.20;;;22.20;99.90;;;;;;5022622;28;20037;-64
2022/01/12 06:14:54;;;;;;;8.63;1.95;;;22.00;99.90;;;;;;5021413;28;20030;-64
2022/01/12 06:17:22;;;;;;;7.70;3.20;;;21.90;99.90;;;;;;5027913;28;20049;-64
2022/01/12 06:19:50;;;;;;;6.35;2.58;;;22.00;99.90;;;;;;5020979;28;20037;-64
2022/01/12 06:22:17;;;;;;;7.63;2.80;;;21.90;99.90;;;;;;5023347;28;20029;-65
2022/01/12 06:24:44;;;;;;;7.13;2.78;;;21.90;99.90;;;;;;5015986;28;20026;-65
2022/01/12 06:27:15;;;;;;;4.88;0.98;;;21.80;99.90;;;;;;5023909;28;20102;-64
2022/01/12 06:29:51;;;;;;;4.55;1.13;;;21.80;99.90;;;;;;5024763;28;20046;-65
2022/01/12 06:32:19;;;;;;;8.23;1.42;;;21.80;99.90;;;;;;5026532;28;20033;-65
2022/01/12 06:34:46;;;;;;;6.25;2.05;;;21.80;99.90;;;;;;5025403;28;20025;-64
2022/01/12 06:37:14;;;;;;;8.15;2.22;;;21.80;99.90;;;;;;5019318;28;20038;-65
2022/01/12 06:39:41;;;;;;;6.55;1.65;;;21.70;99.90;;;;;;5028126;28;20030;-64
2022/01/12 06:42:09;;;;;;;2.92;0.88;;;21.60;99.90;;;;;;5027534;28;20036;-64
2022/01/12 06:44:36;;;;;;;4.72;1.15;;;21.60;99.90;;;;;;5031682;28;20053;-64
2022/01/12 06:47:04;;;;;;;5.18;2.17;;;21.50;99.90;;;;;;5026373;28;20049;-64
2022/01/12 06:49:32;;;;;;;4.00;1.02;;;21.40;99.90;;;;;;5020946;28;20410;-64
2022/01/12 06:52:02;;;;;;;4.30;0.73;;;21.30;99.90;;;;;;5032951;28;20037;-64
2022/01/12 06:54:29;;;;;;;6.00;0.98;;;21.10;99.90;;;;;;5023454;28;20026;-64
2022/01/12 06:56:56;;;;;;;4.22;0.73;;;21.20;99.90;;;;;;5016480;28;20022;-64
2022/01/12 06:59:24;;;;;;;6.85;1.48;;;21.20;99.90;;;;;;5024612;28;20022;-64
2022/01/12 07:01:51;;;;;;;4.15;1.08;;;21.30;99.90;;;;;;5025030;28;20018;-64
2022/01/12 07:04:20;;;;;;;2.05;0.77;;;21.30;99.90;;;;;;5015456;28;20025;-64
2022/01/12 07:06:47;;;;;;;6.88;1.00;;;21.30;99.90;;;;;;5030279;28;20036;-64
2022/01/12 07:09:15;;;;;;;3.00;0.63;;;21.30;99.90;;;;;;5025717;28;20026;-64
2022/01/12 07:11:42;;;;;;;4.18;0.80;;;21.40;99.90;;;;;;5019960;28;20021;-64
2022/01/12 07:14:09;;;;;;;3.78;0.70;;;21.50;99.90;;;;;;5018656;28;20080;-64
2022/01/12 07:16:37;;;;;;;4.13;0.80;;;21.60;99.90;;;;;;5027574;28;20032;-64
2022/01/12 07:19:04;;;;;;;2.83;0.43;;;21.50;99.90;;;;;;5030048;28;20116;-64
2022/01/12 07:21:32;;;;;;;4.88;0.55;;;21.40;99.90;;;;;;5020362;28;20068;-64
2022/01/12 07:23:59;;;;;;;6.43;1.50;;;21.50;99.90;;;;;;5018136;28;20029;-64
2022/01/12 07:26:26;;;;;;;4.85;0.80;;;21.50;99.90;;;;;;5029162;28;20048;-64
2022/01/12 07:28:54;;;;;;;5.30;1.13;;;21.50;99.90;;;;;;5034316;28;20024;-64
2022/01/12 07:31:21;;;;;;;4.40;0.65;;;21.50;99.90;;;;;;5034224;28;20037;-64
2022/01/12 07:33:50;;;;;;;4.55;0.98;;;21.50;99.90;;;;;;5034397;28;20017;-64
2022/01/12 07:36:18;;;;;;;4.60;1.42;;;21.50;99.90;;;;;;5023923;28;20076;-64
2022/01/12 07:38:48;;;;;;;3.53;0.90;;;21.60;99.90;;;;;;5022507;28;20030;-64
2022/01/12 07:41:15;;;;;;;5.35;1.00;;;21.70;99.90;;;;;;5019322;28;20018;-64
2022/01/12 07:43:43;;;;;;;2.97;0.80;;;21.70;99.90;;;;;;5022949;28;20021;-64
2022/01/12 07:46:10;;;;;;;1.40;0.82;;;21.70;99.90;;;;;;5014903;28;20108;-64
2022/01/12 07:48:37;;;;;;;2.17;0.30;;;21.70;99.90;;;;;;5030349;28;20425;-64
2022/01/12 07:51:05;;;;;;;1.50;0.38;;;21.60;99.90;;;;;;5029403;28;20033;-64
2022/01/12 07:53:32;;;;;;;2.08;0.45;;;21.60;99.90;;;;;;5033284;28;20095;-64
2022/01/12 07:55:59;;;;;;;4.22;0.65;;;21.60;99.90;;;;;;5034348;28;20060;-64
2022/01/12 07:58:27;;;;;;;2.50;0.30;;;21.40;99.90;;;;;;5024342;28;20037;-64
2022/01/12 08:00:54;;;;;;;7.60;1.25;;;21.40;99.90;;;;;;5021128;28;20076;-64
2022/01/12 08:03:22;;;;;;;6.13;1.00;;;21.30;99.90;;;;;;5034285;28;20509;-65
2022/01/12 08:05:50;;;;;;;3.92;0.98;;;21.40;99.90;;;;;;5019255;28;20393;-65
2022/01/12 08:08:18;;;;;;;6.25;1.05;;;21.30;99.90;;;;;;5017720;28;20474;-65
2022/01/12 08:10:46;;;;;;;3.75;0.60;;;21.20;99.90;;;;;;5014429;28;20062;-65
2022/01/12 08:13:13;;;;;;;1.88;0.85;;;21.20;99.90;;;;;;5018522;28;20036;-64
2022/01/12 08:15:41;;;;;;;1.33;0.60;;;21.00;99.90;;;;;;5016649;28;20041;-65
2022/01/12 08:18:11;;;;;;;5.32;1.27;;;21.10;99.90;;;;;;5020899;28;20080;-65
2022/01/12 08:20:38;;;;;;;4.57;1.15;;;21.10;99.90;;;;;;5023692;28;20478;-65
2022/01/12 08:23:06;;;;;;;2.90;0.60;;;21.10;99.90;;;;;;5017284;28;20069;-65
2022/01/12 08:25:37;;;;;;;5.20;1.50;;;21.10;99.90;;;;;;5017917;28;20406;-65
2022/01/12 08:28:06;;;;;;;3.90;1.50;;;21.00;99.90;;;;;;5024213;28;20041;-65
2022/01/12 08:30:34;;;;;;;7.40;1.85;;;20.90;99.90;;;;;;5033355;28;20025;-65
2022/01/12 08:33:04;;;;;;;2.78;1.08;;;20.90;99.90;;;;;;5033377;28;20032;-64
2022/01/12 08:35:33;;;;;;;4.13;1.05;;;20.90;99.90;;;;;;5018040;28;20026;-64
2022/01/12 08:38:01;;;;;;;4.70;0.90;;;20.90;99.90;;;;;;5028259;28;20029;-64
2022/01/12 08:40:29;;;;;;;3.90;0.98;;;20.90;99.90;;;;;;5030851;28;20036;-64
2022/01/12 08:42:57;;;;;;;4.00;0.90;;;21.00;99.90;;;;;;5023249;28;20085;-64
2022/01/12 08:45:24;;;;;;;6.22;1.40;;;21.00;99.90;;;;;;5032663;28;20079;-64
2022/01/12 08:47:51;;;;;;;5.28;1.20;;;21.10;99.90;;;;;;5031806;28;20132;-64
2022/01/12 08:50:19;;;;;;;5.82;1.10;;;21.00;99.90;;;;;;5029533;28;20545;-65
2022/01/12 08:52:47;;;;;;;3.25;1.10;;;21.00;99.90;;;;;;5031893;28;20019;-65
2022/01/12 08:55:21;;;;;;;3.05;1.20;;;21.10;99.90;;;;;;5028041;28;20026;-65
2022/01/12 08:57:52;;;;;;;5.63;1.42;;;21.20;99.90;;;;;;5014142;28;20653;-64
2022/01/12 09:00:21;;;;;;;5.15;1.10;;;21.20;99.90;;;;;;5013361;28;20100;-64
2022/01/12 09:02:48;;;;;;;3.30;0.85;;;21.20;99.90;;;;;;5013814;28;20050;-65
2022/01/12 09:05:15;;;;;;;5.82;1.20;;;21.20;99.90;;;;;;5014776;28;20044;-66
2022/01/12 09:07:43;;;;;;;7.03;1.17;;;21.10;99.90;;;;;;5013432;28;20053;-66
2022/01/12 09:10:12;;;;;;;5.47;1.20;;;21.20;99.90;;;;;;5020270;28;20029;-65
2022/01/12 09:12:42;;;;;;;5.90;1.50;;;21.20;99.90;;;;;;5015203;28;20037;-65
2022/01/12 09:15:11;;;;;;;7.55;1.73;;;21.20;99.90;;;;;;5021521;28;20061;-65
2022/01/12 09:17:39;;;;;;;4.55;1.25;;;21.30;99.90;;;;;;5018032;28;20022;-65
2022/01/12 09:20:09;;;;;;;5.85;1.58;;;21.30;99.90;;;;;;5012761;28;20018;-65
2022/01/12 09:22:38;;;;;;;3.30;0.95;;;21.20;99.90;;;;;;5012471;28;20017;-65
2022/01/12 09:25:07;;;;;;;4.63;1.38;;;21.10;99.90;;;;;;5011641;28;20453;-64
2022/01/12 09:27:34;;;;;;;6.75;1.65;;;21.10;99.90;;;;;;5013423;28;20109;-64
2022/01/12 09:30:02;;;;;;;3.72;1.25;;;21.00;99.90;;;;;;5023351;28;20076;-64
2022/01/12 09:32:29;;;;;;;3.58;1.23;;;20.80;99.90;;;;;;5032617;28;20033;-64
2022/01/12 09:34:56;;;;;;;5.82;1.52;;;20.80;99.90;;;;;;5013059;28;20025;-64
2022/01/12 09:37:24;;;;;;;2.90;1.20;;;20.70;99.90;;;;;;5022605;28;20052;-65
2022/01/12 09:39:51;;;;;;;5.32;1.48;;;20.60;99.90;;;;;;5016288;28;20084;-65
2022/01/12 09:42:19;;;;;;;7.07;2.00;;;20.60;99.90;;;;;;5013395;28;20120;-65
2022/01/12 09:44:48;;;;;;;4.30;1.05;;;20.70;99.90;;;;;;5012920;28;20041;-65
2022/01/12 09:47:17;;;;;;;3.70;1.20;;;20.70;99.90;;;;;;5024545;28;20042;-64
2022/01/12 09:49:46;;;;;;;7.00;0.90;;;20.80;99.90;;;;;;5026570;28;20030;-65
2022/01/12 09:52:15;;;;;;;3.97;0.90;;;20.80;99.90;;;;;;5018710;28;20042;-65
2022/01/12 09:54:43;;;;;;;2.47;0.90;;;20.60;99.90;;;;;;5022488;28;20025;-65
2022/01/12 09:57:11;;;;;;;5.95;1.45;;;20.50;99.90;;;;;;5025264;28;20052;-65
2022/01/12 09:59:38;;;;;;;3.97;0.90;;;20.70;99.90;;;;;;5028043;28;20063;-64
2022/01/12 10:02:15;;;;;;;4.13;1.05;;;20.70;99.90;;;;;;5012193;28;20042;-65
2022/01/12 10:04:43;;;;;;;4.78;1.27;;;20.80;99.90;;;;;;5023144;28;20029;-64
2022/01/12 10:07:11;;;;;;;4.55;1.20;;;20.80;99.90;;;;;;5028519;28;20029;-64
2022/01/12 10:09:44;;;;;;;7.72;1.13;;;20.80;99.90;;;;;;5021219;28;20022;-64
2022/01/12 10:12:18;;;;;;;4.43;0.68;;;20.80;99.90;;;;;;5025054;28;20029;-64
2022/01/12 10:14:58;;;;;;;4.70;1.03;;;20.70;99.90;;;;;;5021388;28;20030;-65
2022/01/12 10:17:39;;;;;;;4.90;1.00;;;20.80;99.90;;;;;;5020076;28;20498;-64
2022/01/12 10:20:18;;;;;;;6.25;1.15;;;20.70;99.90;;;;;;5032048;28;20120;-64
2022/01/12 10:23:11;;;;;;;6.07;1.33;;;20.70;99.90;;;;;;5031240;28;20021;-64
2022/01/12 10:25:41;;;;;;;7.05;1.60;;;20.80;99.90;;;;;;5031489;28;20130;-64
2022/01/12 10:28:18;;;;;;;5.75;1.42;;;20.80;99.90;;;;;;5028877;28;20040;-64
2022/01/12 10:31:15;;;;;;;4.05;1.00;;;20.90;99.90;;;;;;5024838;28;20112;-64
2022/01/12 10:33:43;;;;;;;3.63;0.80;;;20.90;99.90;;;;;;5027394;28;20042;-65
2022/01/12 10:36:11;;;;;;;6.03;1.30;;;20.70;99.90;;;;;;5012317;28;20034;-64
2022/01/12 10:38:38;;;;;;;6.82;1.98;;;20.80;99.90;;;;;;5020750;28;20022;-64
2022/01/12 10:41:07;;;;;;;6.97;1.05;;;20.70;99.90;;;;;;5017925;28;20535;-64
2022/01/12 10:43:47;;;;;;;7.18;1.10;;;20.80;99.90;;;;;;5031615;28;20033;-65
2022/01/12 10:46:20;;;;;;;4.68;0.90;;;20.80;99.90;;;;;;5020131;28;20030;-64
2022/01/12 10:48:51;;;;;;;4.22;1.13;;;20.80;99.90;;;;;;5015837;28;20137;-64
2022/01/12 10:51:30;;;;;;;8.88;1.77;;;20.90;99.90;;;;;;5023206;28;20161;-64
2022/01/12 10:54:05;;;;;;;9.32;2.35;;;20.90;99.90;;;;;;5026276;28;20026;-64
2022/01/12 10:56:32;;;;;;;8.73;2.33;;;21.00;99.90;;;;;;5018877;28;20084;-64
2022/01/12 10:59:00;;;;;;;5.68;1.30;;;21.00;99.90;;;;;;5020706;28;20029;-64
2022/01/12 11:01:30;;;;;;;4.95;1.33;;;20.90;99.90;;;;;;5018410;28;20034;-64
2022/01/12 11:03:57;;;;;;;7.13;1.02;;;21.00;99.90;;;;;;5028126;28;20026;-64
2022/01/12 11:06:26;;;;;;;6.95;0.80;;;21.00;99.90;;;;;;5018240;28;20018;-64
2022/01/12 11:08:53;;;;;;;6.22;1.08;;;20.90;99.90;;;;;;5011498;28;20041;-64
2022/01/12 11:11:25;;;;;;;4.82;1.15;;;20.90;99.90;;;;;;5021758;28;20062;-64
2022/01/12 11:13:52;;;;;;;5.88;1.23;;;20.90;99.90;;;;;;5016119;28;20128;-64
2022/01/12 11:16:28;;;;;;;2.45;1.13;;;20.90;99.90;;;;;;5014687;28;20022;-64
2022/01/12 11:18:58;;;;;;;4.03;1.23;;;21.00;99.90;;;;;;5029697;28;20100;-65
2022/01/12 11:21:41;;;;;;;6.25;0.93;;;21.00;99.90;;;;;;5034985;28;20466;-64
2022/01/12 11:24:18;;;;;;;8.50;1.85;;;21.00;99.90;;;;;;5030970;28;20167;-64
2022/01/12 11:26:53;;;;;;;13.13;1.88;;;21.00;99.90;;;;;;5023987;28;20371;-64
2022/01/12 11:29:29;;;;;;;12.02;1.90;;;21.00;99.90;;;;;;5019841;28;20026;-64
2022/01/12 11:32:07;;;;;;;8.15;2.08;;;21.00;99.90;;;;;;5013697;28;20034;-64
2022/01/12 11:34:34;;;;;;;13.50;2.40;;;21.00;99.90;;;;;;5022971;28;20037;-64
2022/01/12 11:37:15;;;;;;;13.27;2.60;;;21.00;99.90;;;;;;5033007;28;20037;-64
2022/01/12 11:39:44;;;;;;;13.80;2.72;;;21.00;99.90;;;;;;5034787;28;20029;-64
2022/01/12 11:42:11;;;;;;;9.48;1.65;;;21.10;99.90;;;;;;5033621;28;20390;-64
2022/01/12 11:44:39;;;;;;;7.13;1.63;;;21.10;99.90;;;;;;5022212;28;20399;-64
2022/01/12 11:47:11;;;;;;;8.48;1.25;;;21.10;99.90;;;;;;5018602;28;20042;-64
2022/01/12 11:49:39;;;;;;;8.65;1.60;;;21.10;99.90;;;;;;5030055;28;20048;-65
2022/01/12 11:52:26;;;;;;;4.88;1.42;;;21.20;99.90;;;;;;5030268;28;20092;-64
2022/01/12 11:55:15;;;;;;;5.75;0.85;;;21.20;99.90;;;;;;5014936;28;20032;-64
2022/01/12 11:57:48;;;;;;;5.47;0.80;;;21.20;99.90;;;;;;5025981;28;20033;-64
2022/01/12 12:00:23;;;;;;;8.80;1.02;;;21.20;99.90;;;;;;5024410;28;20430;-64
2022/01/12 12:02:52;;;;;;;5.82;1.27;;;21.20;99.90;;;;;;5024939;28;20048;-64
2022/01/12 12:05:27;;;;;;;3.55;0.70;;;21.30;99.90;;;;;;5020637;28;20028;-64
2022/01/12 12:08:01;;;;;;;6.53;1.25;;;21.20;99.90;;;;;;5034184;28;20022;-64
2022/01/12 12:10:30;;;;;;;8.52;1.45;;;21.30;99.90;;;;;;5022519;28;20025;-64
2022/01/12 12:12:59;;;;;;;4.43;0.80;;;21.30;99.90;;;;;;5014140;28;20034;-64
2022/01/12 12:15:27;;;;;;;7.78;0.95;;;21.30;99.90;;;;;;5014628;28;20489;-64
2022/01/12 12:17:58;;;;;;;10.45;1.60;;;21.30;99.90;;;;;;5024193;28;20034;-64
2022/01/12 12:20:26;;;;;;;4.40;0.80;;;21.30;99.90;;;;;;5016396;28;20030;-64
2022/01/12 12:22:54;;;;;;;5.97;0.77;;;21.40;99.90;;;;;;5017659;28;20411;-64
2022/01/12 12:25:26;;;;;;;3.42;0.63;;;21.10;99.90;;;;;;5032542;28;20043;-65
2022/01/12 12:27:59;;;;;;;2.28;0.65;;;20.90;99.90;;;;;;5029839;28;20135;-64
2022/01/12 12:30:29;;;;;;;7.07;1.27;;;20.60;99.90;;;;;;5030962;28;20099;-64
2022/01/12 12:33:07;;;;;;;6.70;1.00;;;20.70;99.90;;;;;;5031896;28;20038;-65
2022/01/12 12:35:36;;;;;;;7.47;1.13;;;20.30;99.90;;;;;;5033201;28;20021;-64
2022/01/12 12:38:08;;;;;;;5.32;0.88;;;20.20;99.90;;;;;;5032769;28;20390;-64
2022/01/12 12:40:48;;;;;;;10.45;0.90;;;20.30;99.90;;;;;;5018961;28;20101;-64
2022/01/12 12:43:25;;;;;;;8.07;1.42;;;20.30;99.90;;;;;;5028045;28;20485;-64
2022/01/12 12:45:59;;;;;;;6.97;1.10;;;20.20;99.90;;;;;;5024509;28;20033;-64
2022/01/12 12:48:34;;;;;;;10.10;1.27;;;20.30;99.90;;;;;;5024979;28;20045;-64
2022/01/12 12:51:27;;;;;;;10.32;1.88;;;20.40;99.90;;;;;;5017684;28;20080;-65
2022/01/12 12:53:58;;;;;;;5.63;0.77;;;20.50;99.90;;;;;;5014058;28;20066;-64
2022/01/12 12:56:28;;;;;;;4.88;0.90;;;20.60;99.90;;;;;;5012969;28;20387;-64
2022/01/12 12:58:57;;;;;;;5.18;0.63;;;20.60;99.90;;;;;;5019662;28;20021;-64
2022/01/12 13:01:26;;;;;;;3.45;0.95;;;20.60;99.90;;;;;;5017663;28;20553;-64
2022/01/12 13:03:57;;;;;;;5.82;1.05;;;20.60;99.90;;;;;;5014296;28;20427;-64
2022/01/12 13:06:32;;;;;;;5.55;0.85;;;20.60;99.90;;;;;;5024400;28;20018;-64
2022/01/12 13:09:03;;;;;;;3.72;1.02;;;20.50;99.90;;;;;;5013248;28;20030;-64
2022/01/12 13:11:36;;;;;;;3.70;1.05;;;20.50;99.90;;;;;;5018395;28;20398;-65
2022/01/12 13:14:08;;;;;;;4.38;0.90;;;20.60;99.90;;;;;;5013521;28;20037;-64
2022/01/12 13:16:57;;;;;;;5.50;0.93;;;20.60;99.90;;;;;;5012853;28;20025;-64
2022/01/12 13:22:26;;;;;;;4.40;0.70;;;20.50;99.90;;;;;;5029548;28;20037;-64
2022/01/12 13:24:54;;;;;;;5.47;1.15;;;20.50;99.90;;;;;;5013027;28;20057;-64
2022/01/12 13:27:23;;;;;;;4.53;0.85;;;20.50;99.90;;;;;;5030121;28;20478;-64
2022/01/12 13:29:52;;;;;;;6.03;1.38;;;20.60;99.90;;;;;;5020967;28;20037;-64
2022/01/12 13:32:20;;;;;;;4.50;1.20;;;20.60;99.90;;;;;;5029618;28;20029;-64
2022/01/12 13:35:11;;;;;;;7.28;1.25;;;20.60;99.90;;;;;;5012433;28;20049;-65
2022/01/12 13:37:42;;;;;;;4.22;1.00;;;20.60;99.90;;;;;;5017677;28;20478;-65
2022/01/12 13:40:12;;;;;;;3.67;0.70;;;20.50;99.90;;;;;;5018980;28;20109;-65
2022/01/12 13:42:49;;;;;;;9.82;1.10;;;20.60;99.90;;;;;;5017629;28;20025;-65
2022/01/12 13:45:21;;;;;;;7.18;1.13;;;20.60;99.90;;;;;;5025522;28;20080;-63
2022/01/12 13:47:58;;;;;;;4.30;1.00;;;20.60;99.90;;;;;;5012504;28;20050;-64
2022/01/12 13:50:36;;;;;;;7.15;0.93;;;20.60;99.90;;;;;;5013446;28;20454;-64
2022/01/12 13:53:05;;;;;;;4.65;0.65;;;20.70;99.90;;;;;;5012338;28;20038;-64
2022/01/12 13:55:33;;;;;;;3.13;0.80;;;20.60;99.90;;;;;;5012249;28;20053;-64
2022/01/12 13:58:06;;;;;;;3.60;0.73;;;20.60;99.90;;;;;;5016882;28;20422;-64
2022/01/12 14:00:37;;;;;;;4.28;1.10;;;20.60;99.90;;;;;;5031469;28;20028;-64
2022/01/12 14:03:23;;;;;;;5.95;1.13;;;20.60;99.90;;;;;;5025205;28;20021;-64
2022/01/12 14:05:58;;;;;;;3.47;0.63;;;20.50;99.90;;;;;;5022295;28;20055;-64
2022/01/12 14:08:41;;;;;;;7.22;1.00;;;20.50;99.90;;;;;;5012097;28;20030;-64
2022/01/12 14:11:09;;;;;;;6.40;1.02;;;20.50;99.90;;;;;;5022755;28;20068;-65
2022/01/12 14:13:40;;;;;;;3.97;1.20;;;20.50;99.90;;;;;;5011562;28;20514;-64
2022/01/12 14:16:13;;;;;;;2.17;0.90;;;20.50;99.90;;;;;;5012135;28;20544;-64